createdAt,value
2022-11-05T00:00:23.985Z,11.22
2022-11-05T00:02:50.950Z,9.86
2022-11-05T00:05:17.962Z,11.24
2022-11-05T00:07:51.046Z,9.78
2022-11-05T00:10:29.560Z,10.81
2022-11-05T00:12:59.664Z,11.10
2022-11-05T00:15:26.601Z,11.09
2022-11-05T00:17:53.519Z,9.72
2022-11-05T00:20:20.623Z,9.77
2022-11-05T00:22:47.683Z,9.40
2022-11-05T00:25:15.016Z,9.94
2022-11-05T00:27:42.546Z,9.62
2022-11-05T00:30:10.108Z,9.68
2022-11-05T00:32:37.095Z,10.13
2022-11-05T00:35:05.758Z,10.36
2022-11-05T00:37:32.745Z,10.31
2022-11-05T00:39:59.654Z,9.92
2022-11-05T00:42:26.886Z,10.44
2022-11-05T00:44:53.782Z,10.30
2022-11-05T00:47:21.049Z,9.97
2022-11-05T00:49:48.024Z,8.91
2022-11-05T00:52:14.919Z,9.82
2022-11-05T00:54:41.883Z,8.77
2022-11-05T00:57:08.894Z,9.92
2022-11-05T00:59:35.885Z,9.91
2022-11-05T01:02:03.056Z,9.91
2022-11-05T01:04:30.143Z,9.57
2022-11-05T01:06:57.110Z,10.61
2022-11-05T01:09:24.024Z,9.17
2022-11-05T01:11:50.907Z,10.59
2022-11-05T01:14:17.906Z,9.51
2022-11-05T01:16:45.045Z,9.50
2022-11-05T01:19:12.285Z,9.72
2022-11-05T01:21:39.209Z,9.08
2022-11-05T01:24:06.601Z,8.96
2022-11-05T01:26:33.482Z,9.75
2022-11-05T01:29:00.632Z,9.22
2022-11-05T01:31:28.423Z,10.14
2022-11-05T01:33:55.606Z,10.47
2022-11-05T01:36:22.670Z,9.31
2022-11-05T01:38:49.828Z,10.10
2022-11-05T01:41:16.822Z,9.17
2022-11-05T01:43:50.181Z,10.30
2022-11-05T01:46:55.048Z,9.61
2022-11-05T01:49:32.509Z,10.39
2022-11-05T01:52:03.664Z,10.39
2022-11-05T01:54:33.414Z,9.26
2022-11-05T01:57:04.268Z,8.29
2022-11-05T01:59:40.226Z,10.32
2022-11-05T02:02:08.509Z,9.20
2022-11-05T02:04:40.247Z,9.23
2022-11-05T02:07:09.889Z,8.23
2022-11-05T02:10:08.781Z,10.01
2022-11-05T02:12:39.506Z,10.09
2022-11-05T02:15:07.271Z,9.12
2022-11-05T02:17:51.931Z,9.15
2022-11-05T02:20:32.050Z,10.02
2022-11-05T02:23:26.480Z,9.89
2022-11-05T02:26:14.668Z,9.81
2022-11-05T02:29:12.039Z,9.69
2022-11-05T02:32:03.527Z,8.77
2022-11-05T02:34:33.297Z,9.74
2022-11-05T02:37:16.561Z,9.34
2022-11-05T02:40:04.563Z,8.86
2022-11-05T02:42:38.733Z,9.63
2022-11-05T02:45:23.567Z,9.72
2022-11-05T02:48:18.733Z,8.60
2022-11-05T02:51:04.906Z,8.75
2022-11-05T02:53:39.304Z,9.68
2022-11-05T02:56:13.594Z,8.62
2022-11-05T02:58:40.507Z,8.12
2022-11-05T03:01:09.743Z,8.76
2022-11-05T03:03:46.167Z,9.21
2022-11-05T03:06:27.958Z,9.38
2022-11-05T03:09:13.864Z,9.41
2022-11-05T03:11:59.480Z,9.43
2022-11-05T03:14:49.147Z,9.37
2022-11-05T03:17:27.627Z,9.28
2022-11-05T03:20:15.936Z,8.46
2022-11-05T03:23:07.966Z,9.17
2022-11-05T03:25:43.659Z,8.35
2022-11-05T03:28:13.283Z,7.87
2022-11-05T03:30:42.521Z,8.14
2022-11-05T03:33:17.386Z,6.79
2022-11-05T03:35:50.889Z,8.43
2022-11-05T03:38:24.544Z,7.91
2022-11-05T03:40:55.245Z,8.68
2022-11-05T03:43:27.666Z,8.30
2022-11-05T03:46:00.892Z,7.00
2022-11-05T03:48:30.858Z,8.30
2022-11-05T03:51:00.747Z,8.82
2022-11-05T03:53:32.404Z,8.02
2022-11-05T03:56:31.787Z,9.10
2022-11-05T03:59:01.463Z,8.91
2022-11-05T04:01:30.455Z,7.58
2022-11-05T04:03:57.608Z,8.38
2022-11-05T04:06:24.502Z,7.98
2022-11-05T04:08:51.784Z,7.64
2022-11-05T04:11:18.811Z,7.68
2022-11-05T04:13:45.845Z,7.22
2022-11-05T04:16:12.789Z,8.04
2022-11-05T04:18:40.181Z,8.69
2022-11-05T04:21:08.388Z,8.69
2022-11-05T04:23:35.458Z,7.20
2022-11-05T04:26:02.487Z,6.36
2022-11-05T04:28:29.372Z,7.97
2022-11-05T04:30:56.445Z,8.61
2022-11-05T04:33:23.362Z,8.22
2022-11-05T04:35:50.305Z,7.45
2022-11-05T04:38:19.509Z,8.35
2022-11-05T04:40:47.765Z,8.41
2022-11-05T04:43:17.409Z,8.62
2022-11-05T04:45:45.549Z,7.32
2022-11-05T04:48:12.743Z,8.15
2022-11-05T04:50:39.656Z,7.29
2022-11-05T04:53:06.743Z,6.35
2022-11-05T04:55:33.745Z,8.02
2022-11-05T04:58:00.862Z,7.37
2022-11-05T05:00:28.137Z,7.77
2022-11-05T05:02:55.344Z,6.91
2022-11-05T05:05:22.223Z,7.81
2022-11-05T05:07:49.511Z,7.45
2022-11-05T05:10:16.663Z,7.03
2022-11-05T05:12:43.729Z,7.70
2022-11-05T05:15:10.905Z,8.08
2022-11-05T05:17:37.988Z,8.05
2022-11-05T05:20:05.266Z,9.22
2022-11-05T05:22:32.347Z,9.41
2022-11-05T05:24:59.302Z,8.25
2022-11-05T05:27:28.121Z,8.37
2022-11-05T05:29:58.388Z,8.19
2022-11-05T05:32:26.383Z,9.35
2022-11-05T05:34:53.708Z,8.99
2022-11-05T05:37:20.866Z,9.60
2022-11-05T05:39:47.876Z,9.17
2022-11-05T05:42:15.246Z,9.17
2022-11-05T05:44:42.481Z,9.10
2022-11-05T05:47:09.589Z,9.11
2022-11-05T05:49:36.604Z,9.10
2022-11-05T05:52:03.743Z,9.42
2022-11-05T05:54:33.538Z,9.46
2022-11-05T05:57:02.065Z,9.20
2022-11-05T05:59:29.143Z,9.45
2022-11-05T06:01:56.234Z,10.63
2022-11-05T06:04:23.712Z,10.70
2022-11-05T06:06:50.921Z,9.84
2022-11-05T06:09:17.972Z,9.68
2022-11-05T06:11:44.966Z,10.74
2022-11-05T06:14:13.401Z,10.69
2022-11-05T06:16:40.823Z,9.44
2022-11-05T06:19:08.205Z,10.11
2022-11-05T06:21:35.626Z,8.79
2022-11-05T06:24:03.013Z,8.84
2022-11-05T06:26:30.391Z,9.34
2022-11-05T06:28:57.481Z,10.25
2022-11-05T06:31:24.469Z,10.15
2022-11-05T06:33:51.609Z,10.44
2022-11-05T06:36:20.044Z,9.93
2022-11-05T06:38:47.382Z,11.36
2022-11-05T06:41:14.486Z,10.27
2022-11-05T06:43:41.920Z,10.15
2022-11-05T06:46:10.857Z,11.75
2022-11-05T06:48:38.623Z,11.80
2022-11-05T06:51:07.446Z,10.74
2022-11-05T06:53:34.880Z,10.30
2022-11-05T06:56:05.856Z,12.12
2022-11-05T06:58:33.558Z,12.31
2022-11-05T07:01:10.776Z,11.39
2022-11-05T07:03:38.738Z,12.69
2022-11-05T07:06:07.702Z,12.79
2022-11-05T07:08:35.968Z,12.76
2022-11-05T07:11:02.917Z,11.60
2022-11-05T07:13:29.959Z,12.99
2022-11-05T07:15:57.104Z,13.03
2022-11-05T07:18:24.143Z,12.66
2022-11-05T07:20:51.044Z,11.98
2022-11-05T07:23:18.174Z,13.09
2022-11-05T07:25:45.322Z,12.89
2022-11-05T07:28:12.440Z,13.88
2022-11-05T07:30:39.324Z,13.03
2022-11-05T07:33:06.266Z,13.82
2022-11-05T07:35:33.627Z,13.81
2022-11-05T07:38:00.703Z,13.39
2022-11-05T07:40:29.647Z,13.23
2022-11-05T07:43:01.521Z,13.25
2022-11-05T07:45:30.768Z,12.87
2022-11-05T07:48:02.695Z,14.15
2022-11-05T07:50:34.975Z,13.13
2022-11-05T07:53:12.155Z,14.99
2022-11-05T07:55:41.322Z,14.12
2022-11-05T07:58:08.184Z,14.38
2022-11-05T08:00:35.167Z,14.69
2022-11-05T08:03:12.974Z,15.39
2022-11-05T08:05:42.092Z,16.66
2022-11-05T08:08:10.431Z,16.12
2022-11-05T08:10:38.238Z,15.73
2022-11-05T08:13:06.350Z,17.47
2022-11-05T08:15:34.610Z,17.48
2022-11-05T08:18:03.642Z,17.21
2022-11-05T08:20:31.330Z,16.16
2022-11-05T08:22:58.565Z,17.26
2022-11-05T08:25:26.346Z,17.55
2022-11-05T08:28:02.172Z,17.63
2022-11-05T08:30:29.926Z,17.77
2022-11-05T08:33:02.050Z,18.01
2022-11-05T08:35:29.547Z,16.58
2022-11-05T08:38:01.130Z,17.55
2022-11-05T08:40:29.102Z,17.01
2022-11-05T08:43:00.119Z,17.39
2022-11-05T08:45:27.589Z,17.06
2022-11-05T08:48:02.174Z,17.96
2022-11-05T08:50:29.841Z,17.64
2022-11-05T08:52:56.906Z,17.22
2022-11-05T08:55:24.568Z,17.14
2022-11-05T08:57:58.886Z,16.44
2022-11-05T09:00:27.066Z,17.19
2022-11-05T09:02:54.149Z,17.18
2022-11-05T09:05:21.145Z,17.46
2022-11-05T09:07:48.566Z,17.53
2022-11-05T09:10:15.975Z,15.97
2022-11-05T09:12:43.481Z,16.89
2022-11-05T09:15:11.017Z,15.72
2022-11-05T09:17:37.964Z,15.90
2022-11-05T09:20:06.106Z,16.35
2022-11-05T09:22:33.222Z,15.96
2022-11-05T09:25:00.225Z,16.07
2022-11-05T09:27:27.121Z,16.08
2022-11-05T09:29:54.284Z,16.53
2022-11-05T09:32:21.260Z,15.79
2022-11-05T09:34:48.520Z,16.52
2022-11-05T09:37:16.024Z,15.96
2022-11-05T09:39:42.979Z,15.56
2022-11-05T09:42:13.985Z,16.58
2022-11-05T09:44:49.704Z,16.01
2022-11-05T09:47:33.249Z,15.59
2022-11-05T09:50:03.877Z,16.32
2022-11-05T09:52:33.578Z,16.15
2022-11-05T09:55:03.020Z,16.11
2022-11-05T09:57:41.974Z,16.92
2022-11-05T10:00:13.980Z,16.15
2022-11-05T10:02:54.942Z,16.16
2022-11-05T10:05:24.678Z,16.97
2022-11-05T10:07:56.867Z,16.20
2022-11-05T10:10:27.188Z,16.86
2022-11-05T10:13:01.342Z,16.25
2022-11-05T10:15:36.779Z,17.01
2022-11-05T10:18:19.399Z,16.38
2022-11-05T10:20:46.986Z,17.07
2022-11-05T10:23:19.521Z,16.44
2022-11-05T10:25:53.141Z,17.34
2022-11-05T10:28:23.534Z,17.32
2022-11-05T10:30:58.466Z,16.34
2022-11-05T10:33:34.980Z,16.33
2022-11-05T10:36:07.984Z,17.19
2022-11-05T10:38:34.988Z,16.20
2022-11-05T10:41:40.928Z,17.17
2022-11-05T10:44:40.416Z,17.18
2022-11-05T10:47:29.134Z,17.19
2022-11-05T10:50:01.188Z,17.16
2022-11-05T10:52:31.002Z,17.22
2022-11-05T10:55:01.326Z,17.29
2022-11-05T10:57:33.370Z,17.45
2022-11-05T11:00:15.747Z,17.56
2022-11-05T11:02:44.249Z,17.71
2022-11-05T11:05:18.927Z,17.06
2022-11-05T11:07:54.379Z,16.85
2022-11-05T11:10:23.732Z,17.27
2022-11-05T11:12:52.176Z,17.33
2022-11-05T11:15:33.318Z,17.19
2022-11-05T11:18:25.067Z,17.80
2022-11-05T11:20:52.290Z,17.58
2022-11-05T11:23:19.545Z,16.84
2022-11-05T11:26:01.201Z,18.08
2022-11-05T11:28:34.172Z,18.28
2022-11-05T11:31:08.863Z,17.90
2022-11-05T11:33:38.205Z,17.32
2022-11-05T11:36:07.169Z,17.49
2022-11-05T11:38:36.602Z,18.05
2022-11-05T11:41:33.569Z,18.41
2022-11-05T11:44:07.615Z,18.42
2022-11-05T11:46:36.022Z,17.59
2022-11-05T11:49:04.406Z,17.41
2022-11-05T11:51:39.083Z,18.06
2022-11-05T11:54:07.387Z,17.27
2022-11-05T11:56:46.558Z,17.88
2022-11-05T11:59:46.874Z,17.40
2022-11-05T12:02:38.336Z,18.13
2022-11-05T12:05:17.563Z,18.23
2022-11-05T12:07:52.751Z,18.21
2022-11-05T12:10:27.747Z,17.76
2022-11-05T12:13:16.528Z,18.14
2022-11-05T12:15:57.582Z,18.07
2022-11-05T12:18:43.617Z,18.03
2022-11-05T12:21:51.481Z,18.00
2022-11-05T12:24:58.541Z,18.03
2022-11-05T12:27:44.606Z,17.90
2022-11-05T12:30:20.568Z,17.89
2022-11-05T12:33:10.061Z,17.95
2022-11-05T12:35:49.030Z,17.92
2022-11-05T12:38:56.604Z,17.03
2022-11-05T12:41:46.309Z,17.11
2022-11-05T12:44:38.482Z,17.85
2022-11-05T12:47:43.369Z,17.89
2022-11-05T12:50:53.527Z,16.87
2022-11-05T12:53:32.537Z,17.13
2022-11-05T12:56:04.015Z,17.83
2022-11-05T12:58:42.381Z,17.75
2022-11-05T13:01:17.656Z,17.00
2022-11-05T13:04:00.705Z,16.63
2022-11-05T13:06:43.844Z,16.83
2022-11-05T13:09:21.564Z,16.72
2022-11-05T13:12:04.900Z,17.60
2022-11-05T13:14:57.987Z,17.55
2022-11-05T13:17:51.099Z,15.62
2022-11-05T13:20:33.776Z,17.46
2022-11-05T13:23:15.129Z,16.50
2022-11-05T13:26:10.006Z,16.48
2022-11-05T13:29:07.534Z,17.10
2022-11-05T13:31:42.422Z,16.21
2022-11-05T13:34:14.083Z,17.06
2022-11-05T13:37:02.726Z,16.99
2022-11-05T13:39:36.526Z,16.91
2022-11-05T13:42:36.648Z,16.91
2022-11-05T13:45:22.170Z,16.89
2022-11-05T13:47:58.866Z,15.75
2022-11-05T13:50:52.617Z,16.77
2022-11-05T13:53:56.221Z,16.63
2022-11-05T13:56:59.702Z,16.72
2022-11-05T13:59:42.257Z,16.68
2022-11-05T14:02:23.716Z,16.30
2022-11-05T14:05:01.352Z,16.47
2022-11-05T14:07:33.823Z,16.44
2022-11-05T14:10:22.225Z,16.41
2022-11-05T14:12:53.863Z,15.48
2022-11-05T14:15:25.568Z,16.40
2022-11-05T14:18:04.009Z,16.34
2022-11-05T14:20:31.812Z,16.33
2022-11-05T14:23:22.103Z,15.83
2022-11-05T14:25:58.497Z,14.49
2022-11-05T14:28:34.937Z,15.99
2022-11-05T14:31:21.414Z,16.05
2022-11-05T14:34:10.889Z,16.05
2022-11-05T14:36:40.750Z,15.92
2022-11-05T14:39:33.529Z,15.83
2022-11-05T14:42:32.647Z,14.78
2022-11-05T14:45:03.098Z,15.61
2022-11-05T14:47:38.096Z,15.03
2022-11-05T14:50:18.572Z,14.91
2022-11-05T14:52:54.742Z,14.40
2022-11-05T14:55:43.078Z,14.05
2022-11-05T14:58:28.365Z,15.37
2022-11-05T15:00:57.262Z,14.38
2022-11-05T15:03:38.575Z,15.29
2022-11-05T15:06:25.968Z,15.19
2022-11-05T15:09:04.862Z,15.12
2022-11-05T15:11:45.217Z,14.54
2022-11-05T15:15:01.863Z,15.05
2022-11-05T15:17:39.721Z,14.99
2022-11-05T15:20:15.201Z,13.74
2022-11-05T15:22:57.501Z,14.79
2022-11-05T15:25:47.850Z,14.53
2022-11-05T15:28:39.897Z,13.59
2022-11-05T15:31:38.683Z,14.65
2022-11-05T15:34:27.297Z,14.59
2022-11-05T15:36:58.816Z,14.55
2022-11-05T15:39:39.697Z,12.92
2022-11-05T15:42:14.424Z,14.34
2022-11-05T15:44:47.285Z,14.27
2022-11-05T15:47:36.679Z,14.22
2022-11-05T15:50:16.345Z,13.76
2022-11-05T15:52:52.585Z,14.27
2022-11-05T15:55:25.424Z,13.23
2022-11-05T15:57:55.890Z,14.15
2022-11-05T16:00:29.373Z,14.22
2022-11-05T16:03:19.655Z,12.99
2022-11-05T16:05:48.758Z,13.27
2022-11-05T16:08:23.746Z,13.09
2022-11-05T16:11:00.025Z,13.88
2022-11-05T16:13:41.447Z,13.70
2022-11-05T16:16:14.896Z,13.58
2022-11-05T16:18:45.011Z,13.55
2022-11-05T16:21:18.290Z,13.61
2022-11-05T16:23:54.263Z,12.39
2022-11-05T16:29:35.937Z,13.61
2022-11-05T16:32:19.217Z,12.79
2022-11-05T16:34:51.125Z,12.55
2022-11-05T16:37:21.605Z,13.41
2022-11-05T16:39:49.817Z,13.67
2022-11-05T16:42:23.346Z,13.61
2022-11-05T16:44:52.040Z,12.44
2022-11-05T16:47:20.368Z,13.60
2022-11-05T16:49:52.328Z,13.55
2022-11-05T16:52:19.931Z,12.16
2022-11-05T16:54:47.246Z,11.63
2022-11-05T16:57:34.935Z,13.41
2022-11-05T17:00:02.550Z,13.43
2022-11-05T17:02:30.572Z,13.24
2022-11-05T17:04:58.258Z,12.14
2022-11-05T17:07:25.859Z,13.22
2022-11-05T17:09:53.489Z,13.08
2022-11-05T17:12:21.098Z,13.17
2022-11-05T17:14:48.458Z,12.00
2022-11-05T17:17:17.089Z,12.09
2022-11-05T17:19:44.944Z,12.74
2022-11-05T17:22:12.492Z,11.77
2022-11-05T17:24:40.938Z,12.67
2022-11-05T17:27:08.982Z,12.14
2022-11-05T17:29:36.780Z,12.60
2022-11-05T17:32:06.627Z,12.57
2022-11-05T17:34:34.576Z,12.52
2022-11-05T17:37:02.176Z,12.56
2022-11-05T17:39:31.827Z,11.45
2022-11-05T17:42:00.168Z,11.61
2022-11-05T17:44:27.778Z,11.13
2022-11-05T17:46:55.384Z,11.34
2022-11-05T17:49:23.388Z,12.52
2022-11-05T17:51:50.815Z,11.63
2022-11-05T17:54:18.790Z,11.26
2022-11-05T17:56:46.889Z,11.55
2022-11-05T17:59:15.164Z,10.80
2022-11-05T18:01:42.704Z,12.57
2022-11-05T18:04:11.617Z,11.59
2022-11-05T18:06:40.806Z,12.35
2022-11-05T18:09:10.526Z,12.30
2022-11-05T18:11:39.140Z,10.90
2022-11-05T18:14:07.366Z,12.14
2022-11-05T18:16:35.775Z,11.33
2022-11-05T18:19:04.372Z,12.05
2022-11-05T18:21:32.258Z,10.63
2022-11-05T18:24:03.493Z,11.90
2022-11-05T18:26:31.880Z,10.80
2022-11-05T18:29:04.943Z,11.85
2022-11-05T18:31:33.232Z,11.84
2022-11-05T18:34:01.179Z,11.88
2022-11-05T18:36:31.027Z,10.92
2022-11-05T18:39:00.259Z,12.45
2022-11-05T18:41:27.946Z,12.60
2022-11-05T18:44:03.210Z,11.08
2022-11-05T18:49:20.107Z,11.46
2022-11-05T18:51:48.291Z,12.71
2022-11-05T18:54:15.868Z,12.76
2022-11-05T18:56:43.664Z,11.91
2022-11-05T18:59:35.979Z,12.66
2022-11-05T19:02:04.289Z,12.84
2022-11-05T19:04:32.304Z,12.00
2022-11-05T19:07:04.507Z,12.60
2022-11-05T19:09:36.492Z,12.01
2022-11-05T19:12:05.345Z,12.89
2022-11-05T19:14:33.449Z,12.96
2022-11-05T19:17:01.824Z,11.85
2022-11-05T19:19:29.524Z,11.94
2022-11-05T19:21:57.084Z,11.84
2022-11-05T19:24:24.854Z,11.53
2022-11-05T19:26:52.607Z,12.98
2022-11-05T19:29:20.128Z,10.96
2022-11-05T19:31:48.063Z,12.95
2022-11-05T19:34:15.665Z,12.77
2022-11-05T19:36:44.027Z,12.60
2022-11-05T19:39:14.082Z,12.55
2022-11-05T19:41:42.063Z,12.65
2022-11-05T19:44:09.818Z,10.79
2022-11-05T19:46:37.363Z,11.78
2022-11-05T19:49:05.052Z,11.92
2022-11-05T19:51:33.371Z,12.86
2022-11-05T19:54:02.858Z,11.77
2022-11-05T19:56:33.371Z,12.44
2022-11-05T19:59:01.543Z,12.06
2022-11-05T20:01:29.969Z,12.10
2022-11-05T20:03:59.089Z,12.04
2022-11-05T20:06:37.164Z,12.94
2022-11-05T20:09:21.185Z,12.84
2022-11-05T20:11:51.301Z,11.44
2022-11-05T20:14:19.021Z,10.61
2022-11-05T20:16:47.537Z,11.44
2022-11-05T20:19:20.220Z,10.56
2022-11-05T20:21:48.246Z,11.14
2022-11-05T20:24:23.741Z,11.93
2022-11-05T20:26:51.613Z,10.61
2022-11-05T20:29:19.732Z,11.12
2022-11-05T20:31:47.335Z,11.04
2022-11-05T20:34:14.853Z,11.06
2022-11-05T20:36:43.087Z,11.83
2022-11-05T20:39:11.066Z,10.37
2022-11-05T20:41:38.559Z,11.06
2022-11-05T20:44:06.682Z,11.36
2022-11-05T20:46:34.499Z,10.07
2022-11-05T20:49:02.244Z,10.97
2022-11-05T20:51:29.701Z,11.78
2022-11-05T20:53:59.899Z,12.01
2022-11-05T20:56:33.900Z,11.88
2022-11-05T20:59:02.248Z,10.94
2022-11-05T21:01:32.092Z,11.32
2022-11-05T21:03:59.891Z,10.37
2022-11-05T21:06:27.848Z,11.59
2022-11-05T21:08:55.308Z,10.64
2022-11-05T21:11:23.222Z,11.14
2022-11-05T21:13:50.923Z,11.49
2022-11-05T21:16:19.499Z,11.50
2022-11-05T21:18:47.663Z,10.65
2022-11-05T21:21:18.104Z,11.56
2022-11-05T21:23:46.245Z,10.57
2022-11-05T21:26:15.512Z,11.97
2022-11-05T21:28:43.576Z,11.25
2022-11-05T21:31:11.381Z,12.03
2022-11-05T21:33:39.044Z,11.72
2022-11-05T21:36:12.299Z,11.95
2022-11-05T21:38:41.075Z,10.67
2022-11-05T21:41:10.611Z,9.57
2022-11-05T21:43:39.501Z,10.95
2022-11-05T21:46:07.429Z,10.25
2022-11-05T21:48:35.539Z,10.08
2022-11-05T21:51:03.049Z,9.69
2022-11-05T21:53:30.662Z,9.49
2022-11-05T21:55:58.918Z,11.14
2022-11-05T21:58:26.488Z,11.39
2022-11-05T22:00:54.167Z,10.64
2022-11-05T22:03:21.964Z,10.26
2022-11-05T22:05:50.146Z,9.79
2022-11-05T22:08:18.142Z,10.40
2022-11-05T22:10:45.779Z,9.97
2022-11-05T22:13:14.130Z,9.29
2022-11-05T22:15:41.774Z,8.26
2022-11-05T22:18:10.297Z,8.88
2022-11-05T22:20:39.464Z,10.06
2022-11-05T22:23:11.197Z,9.21
2022-11-05T22:25:40.862Z,9.80
2022-11-05T22:28:08.858Z,10.07
2022-11-05T22:30:36.622Z,10.14
2022-11-05T22:33:04.374Z,10.20
2022-11-05T22:35:32.481Z,10.31
2022-11-05T22:38:00.324Z,8.70
2022-11-05T22:40:28.131Z,10.19
2022-11-05T22:42:55.727Z,9.97
2022-11-05T22:45:23.427Z,9.33
2022-11-05T22:47:51.011Z,9.36
2022-11-05T22:50:18.736Z,9.23
2022-11-05T22:52:46.621Z,8.64
2022-11-05T22:55:14.218Z,9.84
2022-11-05T22:57:41.579Z,8.76
2022-11-05T23:00:16.816Z,10.14
2022-11-05T23:02:45.134Z,9.78
2022-11-05T23:05:12.902Z,8.92
2022-11-05T23:07:40.977Z,8.80
2022-11-05T23:10:10.079Z,9.39
2022-11-05T23:12:38.486Z,8.60
2022-11-05T23:15:08.250Z,9.20
2022-11-05T23:17:35.534Z,9.44
2022-11-05T23:20:03.860Z,8.27
2022-11-05T23:22:33.069Z,9.95
2022-11-05T23:25:00.968Z,10.14
2022-11-05T23:27:37.746Z,9.13
2022-11-05T23:30:14.375Z,10.13
2022-11-05T23:32:41.963Z,10.19
2022-11-05T23:35:10.371Z,8.91
2022-11-05T23:37:38.136Z,8.19
2022-11-05T23:40:09.043Z,9.41
2022-11-05T23:42:36.925Z,8.77
2022-11-05T23:45:10.332Z,8.37
2022-11-05T23:47:41.098Z,9.61
2022-11-05T23:50:09.501Z,8.87
2022-11-05T23:52:37.184Z,8.33
2022-11-05T23:55:05.540Z,8.26
2022-11-05T23:57:32.681Z,8.58
